Time;durP1;ratioP1;P1;durP2;ratioP2;P2;SDS_P1;SDS_P2;PMS_P1;PMS_P2;Temp;Humidity;BMP_temperature;BMP_pressure;BME280_temperature;BME280_humidity;BME280_pressure;Samples;Min_cycle;Max_cycle;Signal;HPM_P1;HPM_P2
2023/03/30 00:01:04;;;;;;;19.38;12.60;;;9.90;99.90;;;;;;5024744;28;20734;-66
2023/03/30 00:03:32;;;;;;;18.27;12.30;;;9.90;99.90;;;;;;5014778;28;20209;-66
2023/03/30 00:06:03;;;;;;;18.38;12.43;;;9.90;99.90;;;;;;5025573;28;20205;-66
2023/03/30 00:08:32;;;;;;;14.95;11.70;;;9.90;99.90;;;;;;5010262;28;20206;-65
2023/03/30 00:11:02;;;;;;;14.75;10.80;;;9.90;99.90;;;;;;4987194;28;20224;-65
2023/03/30 00:13:30;;;;;;;15.73;12.05;;;9.90;99.90;;;;;;5020568;28;20298;-66
2023/03/30 00:15:56;;;;;;;13.27;11.13;;;9.90;99.90;;;;;;5000502;28;20821;-65
2023/03/30 00:18:23;;;;;;;17.50;11.00;;;9.90;99.90;;;;;;4998952;28;20222;-66
2023/03/30 00:20:51;;;;;;;17.08;11.40;;;9.90;99.90;;;;;;5017690;28;20221;-65
2023/03/30 00:23:18;;;;;;;15.43;10.68;;;10.00;99.90;;;;;;5021891;28;20592;-66
2023/03/30 00:25:46;;;;;;;15.40;11.18;;;9.90;99.90;;;;;;4986633;28;20213;-66
2023/03/30 00:28:13;;;;;;;13.43;10.73;;;10.00;99.90;;;;;;5025944;28;20220;-65
2023/03/30 00:30:40;;;;;;;16.90;10.98;;;9.90;99.90;;;;;;5008954;28;20209;-65
2023/03/30 00:33:07;;;;;;;19.27;11.38;;;9.90;99.90;;;;;;5018173;28;20217;-66
2023/03/30 00:35:34;;;;;;;15.23;10.38;;;9.90;99.90;;;;;;5013181;28;20198;-66
2023/03/30 00:38:02;;;;;;;14.77;11.15;;;10.00;99.90;;;;;;5025114;28;20197;-65
2023/03/30 00:40:31;;;;;;;16.08;11.18;;;10.00;99.90;;;;;;5008716;28;20230;-66
2023/03/30 00:43:00;;;;;;;12.95;9.90;;;10.00;99.90;;;;;;5014819;28;20206;-66
2023/03/30 00:45:29;;;;;;;14.13;10.95;;;10.00;99.90;;;;;;5012316;28;20204;-66
2023/03/30 00:48:01;;;;;;;16.73;10.27;;;10.00;99.90;;;;;;5012994;28;20229;-65
2023/03/30 00:50:34;;;;;;;15.45;11.35;;;9.90;99.90;;;;;;5017224;28;20194;-66
2023/03/30 00:53:07;;;;;;;14.80;10.35;;;9.90;99.90;;;;;;5026908;28;20210;-66
2023/03/30 00:55:38;;;;;;;15.10;9.98;;;9.90;99.90;;;;;;5003476;28;20751;-66
2023/03/30 00:58:08;;;;;;;13.60;10.52;;;9.90;99.90;;;;;;5023988;28;20619;-66
2023/03/30 01:00:37;;;;;;;13.88;10.05;;;9.90;99.90;;;;;;5018814;28;20204;-67
2023/03/30 01:03:10;;;;;;;16.23;9.73;;;9.90;99.90;;;;;;5026691;28;20215;-66
2023/03/30 01:05:39;;;;;;;14.52;10.55;;;9.90;99.90;;;;;;5013733;28;20256;-66
2023/03/30 01:08:06;;;;;;;15.23;9.45;;;9.90;99.90;;;;;;5031144;28;20201;-66
2023/03/30 01:10:33;;;;;;;14.35;10.07;;;9.90;99.90;;;;;;5022502;28;20299;-66
2023/03/30 01:13:00;;;;;;;14.52;10.80;;;9.90;99.90;;;;;;4993437;28;20252;-66
2023/03/30 01:15:34;;;;;;;15.43;9.80;;;9.90;99.90;;;;;;5025039;28;20201;-66
2023/03/30 01:18:24;;;;;;;14.55;10.40;;;9.80;99.90;;;;;;5020955;28;20232;-66
2023/03/30 01:21:30;;;;;;;17.02;9.48;;;9.80;99.90;;;;;;5020363;28;20221;-66
2023/03/30 01:24:34;;;;;;;14.27;9.73;;;9.80;99.90;;;;;;5016286;28;21369;-66
2023/03/30 01:27:07;;;;;;;15.07;10.38;;;9.70;99.90;;;;;;4995488;28;20210;-66
2023/03/30 01:29:47;;;;;;;12.32;9.80;;;9.70;99.90;;;;;;5028084;28;20202;-66
2023/03/30 01:32:54;;;;;;;14.27;9.43;;;9.70;99.90;;;;;;5011220;28;20291;-66
2023/03/30 01:36:12;;;;;;;13.95;9.40;;;9.60;99.90;;;;;;5017296;28;20209;-65
2023/03/30 01:39:08;;;;;;;11.35;9.00;;;9.70;99.90;;;;;;4920252;28;20220;-66
2023/03/30 01:41:41;;;;;;;13.60;9.32;;;9.70;99.90;;;;;;4887597;28;20237;-66
2023/03/30 01:44:15;;;;;;;12.65;9.02;;;9.60;99.90;;;;;;5005551;28;20197;-66
2023/03/30 01:46:46;;;;;;;15.07;9.95;;;9.70;99.90;;;;;;4997100;28;20198;-66
2023/03/30 01:49:17;;;;;;;16.00;9.32;;;9.70;99.90;;;;;;5022837;28;20199;-66
2023/03/30 01:51:48;;;;;;;11.73;8.73;;;9.70;99.90;;;;;;5001693;28;20201;-66
2023/03/30 01:54:20;;;;;;;12.50;9.15;;;9.70;99.90;;;;;;5022881;28;20202;-66
2023/03/30 01:56:50;;;;;;;11.73;8.85;;;9.70;99.90;;;;;;5017173;28;20660;-66
2023/03/30 01:59:24;;;;;;;14.57;8.88;;;9.70;99.90;;;;;;4995607;28;20210;-66
2023/03/30 02:01:59;;;;;;;12.95;9.30;;;9.70;99.90;;;;;;4994625;28;21118;-66
2023/03/30 02:04:29;;;;;;;12.38;9.13;;;9.70;99.90;;;;;;5025929;28;20284;-66
2023/03/30 02:06:59;;;;;;;15.07;9.98;;;9.70;99.90;;;;;;5012431;28;20209;-66
2023/03/30 02:09:29;;;;;;;14.80;9.60;;;9.80;99.90;;;;;;5023840;28;20243;-66
2023/03/30 02:11:57;;;;;;;20.70;10.32;;;9.80;99.90;;;;;;5015508;28;20202;-65
2023/03/30 02:14:27;;;;;;;12.95;9.48;;;9.70;99.90;;;;;;4998577;28;20205;-66
2023/03/30 02:16:57;;;;;;;16.30;9.60;;;9.70;99.90;;;;;;4994598;28;20224;-66
2023/03/30 02:19:24;;;;;;;16.80;9.57;;;9.70;99.90;;;;;;5022427;28;20220;-66
2023/03/30 02:21:51;;;;;;;12.73;8.98;;;9.70;99.90;;;;;;4989732;28;21417;-66
2023/03/30 02:24:23;;;;;;;16.95;9.88;;;9.80;99.90;;;;;;5017724;28;20681;-66
2023/03/30 02:26:53;;;;;;;14.55;8.63;;;9.80;99.90;;;;;;5007093;28;20216;-66
2023/03/30 02:29:22;;;;;;;13.38;8.90;;;9.80;99.90;;;;;;4973735;28;20362;-66
2023/03/30 02:31:52;;;;;;;16.60;8.85;;;9.70;99.90;;;;;;5013308;28;20197;-66
2023/03/30 02:34:32;;;;;;;10.90;8.63;;;9.70;99.90;;;;;;5007506;28;20206;-66
2023/03/30 02:37:17;;;;;;;14.43;8.48;;;9.80;99.90;;;;;;5013870;28;20213;-66
2023/03/30 02:39:56;;;;;;;11.98;7.55;;;9.80;99.90;;;;;;5008253;28;20601;-66
2023/03/30 02:42:47;;;;;;;14.02;7.93;;;9.80;99.90;;;;;;5007362;28;20221;-66
2023/03/30 02:45:30;;;;;;;11.88;8.38;;;9.80;99.90;;;;;;4959484;28;20689;-66
2023/03/30 02:48:11;;;;;;;11.15;7.22;;;9.90;99.90;;;;;;5018561;28;20237;-66
2023/03/30 02:50:45;;;;;;;9.88;7.53;;;9.90;99.90;;;;;;4994850;28;20205;-66
2023/03/30 02:53:22;;;;;;;10.82;7.60;;;9.90;99.90;;;;;;5011982;28;20618;-66
2023/03/30 02:55:59;;;;;;;11.43;7.13;;;9.90;99.90;;;;;;5020816;28;20312;-66
2023/03/30 02:58:36;;;;;;;13.50;7.18;;;9.90;99.90;;;;;;5009787;28;20212;-66
2023/03/30 03:01:09;;;;;;;10.85;6.82;;;9.90;99.90;;;;;;4989242;28;20322;-66
2023/03/30 03:03:39;;;;;;;13.38;7.07;;;9.90;99.90;;;;;;5002278;28;20198;-66
2023/03/30 03:06:08;;;;;;;12.63;7.15;;;9.90;99.90;;;;;;5006735;28;20740;-66
2023/03/30 03:08:38;;;;;;;12.95;6.80;;;9.90;99.90;;;;;;5005001;28;20204;-66
2023/03/30 03:11:05;;;;;;;10.55;6.45;;;9.90;99.90;;;;;;5002623;28;20217;-66
2023/03/30 03:13:35;;;;;;;8.38;6.35;;;9.90;99.90;;;;;;4994910;28;20693;-66
2023/03/30 03:16:02;;;;;;;8.55;6.15;;;9.90;99.90;;;;;;4991067;28;21100;-66
2023/03/30 03:18:29;;;;;;;11.77;7.05;;;9.90;99.90;;;;;;5009844;28;20201;-66
2023/03/30 03:20:56;;;;;;;8.00;6.22;;;9.90;99.90;;;;;;4996741;28;20229;-66
2023/03/30 03:23:23;;;;;;;11.32;6.38;;;9.90;99.90;;;;;;5020590;28;20228;-66
2023/03/30 03:25:50;;;;;;;10.63;7.07;;;9.80;99.90;;;;;;4987227;28;20220;-66
2023/03/30 03:28:17;;;;;;;13.25;6.47;;;9.80;99.90;;;;;;5009589;28;21610;-66
2023/03/30 03:30:45;;;;;;;12.30;6.85;;;9.80;99.90;;;;;;4985876;28;20215;-66
2023/03/30 03:33:12;;;;;;;13.07;6.38;;;9.80;99.90;;;;;;5025216;28;20213;-66
2023/03/30 03:35:39;;;;;;;8.95;6.60;;;9.80;99.90;;;;;;4993128;28;20197;-66
2023/03/30 03:38:06;;;;;;;11.88;6.28;;;9.70;99.90;;;;;;5019818;28;20255;-66
2023/03/30 03:40:33;;;;;;;11.68;6.97;;;9.70;99.90;;;;;;5005834;28;20229;-66
2023/03/30 03:43:00;;;;;;;8.98;6.72;;;9.70;99.90;;;;;;5017114;28;20226;-66
2023/03/30 03:45:27;;;;;;;14.90;7.63;;;9.70;99.90;;;;;;4996964;28;20201;-66
2023/03/30 03:47:55;;;;;;;8.35;6.28;;;9.70;99.90;;;;;;5000377;28;20312;-66
2023/03/30 03:50:22;;;;;;;8.43;6.13;;;9.80;99.90;;;;;;4998808;28;20205;-66
2023/03/30 03:52:49;;;;;;;8.55;6.38;;;9.80;99.90;;;;;;4985212;28;20205;-66
2023/03/30 03:55:16;;;;;;;11.10;6.53;;;9.80;99.90;;;;;;5024492;28;20712;-66
2023/03/30 03:57:43;;;;;;;10.73;6.75;;;9.80;99.90;;;;;;5001294;28;20228;-66
2023/03/30 04:00:15;;;;;;;8.02;5.60;;;9.80;99.90;;;;;;5021848;28;20240;-65
2023/03/30 04:02:42;;;;;;;8.52;5.32;;;9.90;99.90;;;;;;4992280;28;20233;-66
2023/03/30 04:05:11;;;;;;;8.68;5.68;;;10.00;99.90;;;;;;5021182;28;20197;-66
2023/03/30 04:07:38;;;;;;;10.48;5.60;;;10.00;99.90;;;;;;5011577;28;20739;-66
2023/03/30 04:10:06;;;;;;;5.85;4.97;;;10.10;99.90;;;;;;5026179;28;20263;-65
2023/03/30 04:12:33;;;;;;;9.98;5.22;;;10.20;99.90;;;;;;5010927;28;20197;-66
2023/03/30 04:15:00;;;;;;;8.02;5.63;;;10.20;99.90;;;;;;5027815;28;20275;-66
2023/03/30 04:17:27;;;;;;;6.95;4.93;;;10.30;99.90;;;;;;5011283;28;20385;-66
2023/03/30 04:19:54;;;;;;;5.93;4.60;;;10.40;99.90;;;;;;5003303;28;20311;-66
2023/03/30 04:22:24;;;;;;;5.10;3.97;;;10.40;99.90;;;;;;5026787;28;20241;-66
2023/03/30 04:24:51;;;;;;;8.02;5.13;;;10.40;99.90;;;;;;5013433;28;20224;-65
2023/03/30 04:27:18;;;;;;;7.68;4.85;;;10.40;99.90;;;;;;5027056;28;20206;-66
2023/03/30 04:29:45;;;;;;;8.57;4.78;;;10.40;99.90;;;;;;5010891;28;20202;-66
2023/03/30 04:32:12;;;;;;;7.25;4.70;;;10.40;99.90;;;;;;5026727;28;20202;-66
2023/03/30 04:34:41;;;;;;;6.18;4.32;;;10.40;99.90;;;;;;4995319;28;20611;-66
2023/03/30 04:37:08;;;;;;;8.77;4.50;;;10.40;99.90;;;;;;5014387;28;20603;-66
2023/03/30 04:39:37;;;;;;;5.82;3.95;;;10.40;99.90;;;;;;5005207;28;20209;-66
2023/03/30 04:42:05;;;;;;;5.60;4.35;;;10.40;99.90;;;;;;5021829;28;20367;-66
2023/03/30 04:44:32;;;;;;;6.65;4.50;;;10.40;99.90;;;;;;5013671;28;20940;-66
2023/03/30 04:46:58;;;;;;;7.28;4.75;;;10.40;99.90;;;;;;5028357;28;20206;-66
2023/03/30 04:49:26;;;;;;;7.25;4.13;;;10.40;99.90;;;;;;4995423;28;20236;-66
2023/03/30 04:51:53;;;;;;;6.85;4.28;;;10.40;99.90;;;;;;5017404;28;20206;-66
2023/03/30 04:54:20;;;;;;;5.60;3.95;;;10.40;99.90;;;;;;5012057;28;20198;-66
2023/03/30 04:56:48;;;;;;;7.88;4.10;;;10.50;99.90;;;;;;5024229;28;20202;-66
2023/03/30 04:59:15;;;;;;;9.00;4.45;;;10.40;99.90;;;;;;5013642;28;20198;-66
2023/03/30 05:01:42;;;;;;;5.90;4.28;;;10.50;99.90;;;;;;5022954;28;20570;-66
2023/03/30 05:04:09;;;;;;;7.32;4.03;;;10.50;99.90;;;;;;4997392;28;20243;-66
2023/03/30 05:06:36;;;;;;;5.50;3.50;;;10.50;99.90;;;;;;5011753;28;20221;-65
2023/03/30 05:09:03;;;;;;;10.10;3.55;;;10.50;99.90;;;;;;5000578;28;20941;-65
2023/03/30 05:11:30;;;;;;;5.05;3.35;;;10.60;99.90;;;;;;5014627;28;20204;-66
2023/03/30 05:13:58;;;;;;;3.88;3.20;;;10.60;99.90;;;;;;5018801;28;20715;-66
2023/03/30 05:16:25;;;;;;;10.02;3.25;;;10.70;99.90;;;;;;5007448;28;20272;-66
2023/03/30 05:18:53;;;;;;;6.22;3.88;;;10.60;99.90;;;;;;4994764;28;20225;-66
2023/03/30 05:21:20;;;;;;;5.97;3.72;;;10.70;99.90;;;;;;5035190;28;20197;-66
2023/03/30 05:23:47;;;;;;;5.95;3.80;;;10.70;99.90;;;;;;4996883;28;20236;-66
2023/03/30 05:26:14;;;;;;;6.05;3.28;;;10.70;99.90;;;;;;5008983;28;20235;-66
2023/03/30 05:28:41;;;;;;;11.98;4.45;;;10.70;99.90;;;;;;5030118;28;20711;-66
2023/03/30 05:31:10;;;;;;;8.05;4.03;;;10.70;99.90;;;;;;5014921;28;20197;-66
2023/03/30 05:33:36;;;;;;;5.65;3.75;;;10.80;99.90;;;;;;5029111;28;20216;-66
2023/03/30 05:36:04;;;;;;;6.13;3.70;;;10.90;99.90;;;;;;4987285;28;20327;-66
2023/03/30 05:38:31;;;;;;;8.18;4.20;;;10.90;99.90;;;;;;5015790;28;20648;-66
2023/03/30 05:40:58;;;;;;;5.63;3.38;;;10.90;99.90;;;;;;5010425;28;20240;-66
2023/03/30 05:43:25;;;;;;;5.47;2.65;;;10.90;99.90;;;;;;5025209;28;20221;-66
2023/03/30 05:45:52;;;;;;;6.13;3.15;;;11.00;99.90;;;;;;5007811;28;20256;-66
2023/03/30 05:48:20;;;;;;;9.63;3.40;;;11.10;99.90;;;;;;5027667;28;20217;-66
2023/03/30 05:50:47;;;;;;;3.00;2.63;;;11.10;99.90;;;;;;4984891;28;20221;-66
2023/03/30 05:53:14;;;;;;;4.53;2.92;;;11.10;99.90;;;;;;5002956;28;20225;-66
2023/03/30 05:55:43;;;;;;;4.93;2.88;;;11.10;99.90;;;;;;4998699;28;20704;-66
2023/03/30 05:58:10;;;;;;;5.18;3.10;;;11.10;99.90;;;;;;5005404;28;20227;-66
2023/03/30 06:00:37;;;;;;;7.07;3.25;;;11.10;99.90;;;;;;5019876;28;20700;-66
2023/03/30 06:03:04;;;;;;;6.22;3.53;;;11.10;99.90;;;;;;5007698;28;20240;-66
2023/03/30 06:05:34;;;;;;;7.10;3.30;;;11.10;99.90;;;;;;4987926;28;20600;-66
2023/03/30 06:08:01;;;;;;;4.55;3.25;;;11.10;99.90;;;;;;4987478;28;20720;-66
2023/03/30 06:10:28;;;;;;;4.72;3.30;;;11.10;99.90;;;;;;4990718;28;20227;-66
2023/03/30 06:12:54;;;;;;;6.25;3.75;;;11.10;99.90;;;;;;5009603;28;20229;-66
2023/03/30 06:15:21;;;;;;;7.40;4.60;;;11.10;99.90;;;;;;5015433;28;20224;-66
2023/03/30 06:17:50;;;;;;;5.53;3.88;;;11.10;99.90;;;;;;5004285;28;20217;-67
2023/03/30 06:20:20;;;;;;;9.23;4.05;;;11.00;99.90;;;;;;5012335;28;20236;-67
2023/03/30 06:22:48;;;;;;;8.82;4.65;;;11.10;99.90;;;;;;4994825;28;20237;-67
2023/03/30 06:25:15;;;;;;;5.03;4.20;;;11.10;99.90;;;;;;5001276;28;23222;-66
2023/03/30 06:27:42;;;;;;;6.20;3.90;;;11.10;99.90;;;;;;4991934;28;20225;-66
2023/03/30 06:30:10;;;;;;;5.78;4.07;;;11.10;99.90;;;;;;5014469;28;21716;-66
2023/03/30 06:32:38;;;;;;;8.63;4.72;;;11.20;99.90;;;;;;4995771;28;20231;-66
2023/03/30 06:35:05;;;;;;;8.02;4.88;;;11.30;99.90;;;;;;5015205;28;20275;-67
2023/03/30 06:37:33;;;;;;;8.70;4.80;;;11.30;99.90;;;;;;4984619;28;20224;-66
2023/03/30 06:40:02;;;;;;;8.20;4.32;;;11.40;99.90;;;;;;4998547;28;20229;-66
2023/03/30 06:42:29;;;;;;;7.25;3.17;;;11.40;99.90;;;;;;4993316;28;20231;-67
2023/03/30 06:44:56;;;;;;;8.52;3.50;;;11.40;99.90;;;;;;5012328;28;20212;-67
2023/03/30 06:47:23;;;;;;;5.18;2.88;;;11.50;99.90;;;;;;5002062;28;20202;-67
2023/03/30 06:49:50;;;;;;;5.13;3.05;;;11.40;99.90;;;;;;5018533;28;20219;-67
2023/03/30 06:52:17;;;;;;;5.95;2.88;;;11.40;99.90;;;;;;4973841;28;20206;-66
2023/03/30 06:54:43;;;;;;;6.22;2.88;;;11.40;99.90;;;;;;5012846;28;20228;-67
2023/03/30 06:57:12;;;;;;;5.10;3.30;;;11.40;99.90;;;;;;5000405;28;20213;-67
2023/03/30 06:59:38;;;;;;;6.47;3.65;;;11.40;99.90;;;;;;5002643;28;20913;-67
2023/03/30 07:02:05;;;;;;;6.28;3.03;;;11.50;99.90;;;;;;5007017;28;20217;-67
2023/03/30 07:04:32;;;;;;;5.32;3.22;;;11.50;99.90;;;;;;5015278;28;20240;-67
2023/03/30 07:06:59;;;;;;;5.38;3.30;;;11.40;99.90;;;;;;4978002;28;20232;-67
2023/03/30 07:09:26;;;;;;;4.68;2.63;;;11.40;99.90;;;;;;5020791;28;20228;-67
2023/03/30 07:11:53;;;;;;;5.47;3.13;;;11.40;99.90;;;;;;5000465;28;20225;-67
2023/03/30 07:14:21;;;;;;;6.53;3.25;;;11.40;99.90;;;;;;4989396;28;20386;-67
2023/03/30 07:16:48;;;;;;;5.57;3.53;;;11.50;99.90;;;;;;5007232;28;20217;-66
2023/03/30 07:19:15;;;;;;;6.00;2.42;;;11.50;99.90;;;;;;5002035;28;20225;-67
2023/03/30 07:21:42;;;;;;;3.88;2.65;;;11.60;99.90;;;;;;5022104;28;20738;-67
2023/03/30 07:24:09;;;;;;;4.95;2.55;;;11.70;99.90;;;;;;4986276;28;20682;-67
2023/03/30 07:26:36;;;;;;;6.90;2.80;;;11.70;99.90;;;;;;5000666;28;20221;-66
2023/03/30 07:29:03;;;;;;;6.55;2.58;;;11.70;99.90;;;;;;4989371;28;20221;-67
2023/03/30 07:31:32;;;;;;;5.82;2.97;;;11.80;99.90;;;;;;5000389;28;20229;-66
2023/03/30 07:33:58;;;;;;;4.75;2.47;;;11.80;99.90;;;;;;5000521;28;20382;-67
2023/03/30 07:36:25;;;;;;;4.00;2.50;;;11.90;99.90;;;;;;5015880;28;20218;-67
2023/03/30 07:38:52;;;;;;;3.90;2.80;;;11.90;99.90;;;;;;4979452;28;20764;-67
2023/03/30 07:41:20;;;;;;;4.35;2.58;;;11.90;99.90;;;;;;5005167;28;22455;-67
2023/03/30 07:43:46;;;;;;;8.43;3.20;;;12.00;99.90;;;;;;4997943;28;20263;-67
2023/03/30 07:46:13;;;;;;;11.18;4.03;;;12.10;99.90;;;;;;4982302;28;20217;-67
2023/03/30 07:48:41;;;;;;;5.25;3.15;;;12.10;99.90;;;;;;4997186;28;20221;-67
2023/03/30 07:51:11;;;;;;;6.82;3.30;;;12.10;99.90;;;;;;5002514;28;20217;-67
2023/03/30 07:53:38;;;;;;;4.07;3.08;;;12.20;99.90;;;;;;4980734;28;20235;-67
2023/03/30 07:56:05;;;;;;;4.05;2.70;;;12.20;99.90;;;;;;5014396;28;20416;-67
2023/03/30 07:58:32;;;;;;;3.45;2.58;;;12.30;99.90;;;;;;5000233;28;20221;-68
2023/03/30 08:01:01;;;;;;;3.35;2.70;;;12.40;99.90;;;;;;4995306;28;20228;-68
2023/03/30 08:03:28;;;;;;;3.47;2.65;;;12.50;99.90;;;;;;5012732;28;20229;-66
2023/03/30 08:05:59;;;;;;;4.30;2.53;;;12.60;97.70;;;;;;4990826;28;20245;-67
2023/03/30 08:08:26;;;;;;;6.00;2.50;;;12.60;98.00;;;;;;4999414;28;20236;-67
2023/03/30 08:10:53;;;;;;;4.10;2.42;;;12.70;97.30;;;;;;4988612;28;20236;-66
2023/03/30 08:13:20;;;;;;;4.70;2.17;;;12.60;97.50;;;;;;5003068;28;20231;-67
2023/03/30 08:15:47;;;;;;;5.00;2.67;;;12.60;97.90;;;;;;5015854;28;20217;-67
2023/03/30 08:18:14;;;;;;;5.85;2.72;;;12.60;98.60;;;;;;4986218;28;20802;-67
2023/03/30 08:20:42;;;;;;;6.15;2.42;;;12.70;98.50;;;;;;4985693;28;20240;-66
2023/03/30 08:23:12;;;;;;;8.05;2.55;;;12.70;99.10;;;;;;5009010;28;20324;-67
2023/03/30 08:25:39;;;;;;;4.68;2.15;;;12.70;99.90;;;;;;4986331;28;20236;-67
2023/03/30 08:28:06;;;;;;;5.85;2.50;;;12.70;99.90;;;;;;4992805;28;20222;-67
2023/03/30 08:30:33;;;;;;;5.38;2.20;;;12.80;99.90;;;;;;4992057;28;20233;-67
2023/03/30 08:33:00;;;;;;;5.72;2.42;;;12.80;99.90;;;;;;4989460;28;20687;-67
2023/03/30 08:35:27;;;;;;;10.90;2.90;;;12.80;99.90;;;;;;5010864;28;20221;-67
2023/03/30 08:37:54;;;;;;;7.72;2.70;;;12.80;99.90;;;;;;5016997;28;20202;-67
2023/03/30 08:40:23;;;;;;;5.78;3.10;;;12.70;99.90;;;;;;5015136;28;20895;-67
2023/03/30 08:43:03;;;;;;;4.20;2.13;;;12.70;99.90;;;;;;4974279;28;23337;-68
2023/03/30 08:45:35;;;;;;;3.53;2.20;;;12.70;99.90;;;;;;5014269;28;20201;-67
2023/03/30 08:48:03;;;;;;;4.15;2.13;;;12.70;99.90;;;;;;4997848;28;21410;-66
2023/03/30 08:50:33;;;;;;;5.10;2.40;;;12.60;99.90;;;;;;5002081;28;20213;-68
2023/03/30 08:53:00;;;;;;;4.65;2.50;;;12.70;99.90;;;;;;5022111;28;20692;-67
2023/03/30 08:55:34;;;;;;;5.95;2.47;;;12.80;99.90;;;;;;5014927;28;20690;-67
2023/03/30 08:58:09;;;;;;;4.28;2.22;;;12.90;99.90;;;;;;4982261;28;20857;-67
2023/03/30 09:00:42;;;;;;;3.47;2.53;;;13.00;99.90;;;;;;5006000;28;20408;-67
2023/03/30 09:03:19;;;;;;;4.85;2.38;;;13.10;99.90;;;;;;5000275;28;20677;-67
2023/03/30 09:05:50;;;;;;;3.95;2.05;;;13.10;99.90;;;;;;4998434;28;20893;-67
2023/03/30 09:08:21;;;;;;;5.90;2.47;;;13.20;98.10;;;;;;5020281;28;20206;-67
2023/03/30 09:10:53;;;;;;;3.97;2.35;;;13.30;95.60;;;;;;5012612;28;20331;-67
2023/03/30 09:13:24;;;;;;;9.07;1.90;;;13.40;93.20;;;;;;4992118;28;20706;-67
2023/03/30 09:15:55;;;;;;;4.30;2.42;;;13.50;90.20;;;;;;5003025;28;20664;-67
2023/03/30 09:18:28;;;;;;;4.38;2.05;;;13.50;88.50;;;;;;5010409;28;20201;-67
2023/03/30 09:20:57;;;;;;;3.67;1.80;;;13.60;74.50;;;;;;4979502;28;20354;-67
2023/03/30 09:23:24;;;;;;;7.45;2.17;;;13.60;63.90;;;;;;5015097;28;20694;-67
2023/03/30 09:26:01;;;;;;;8.02;2.15;;;13.60;55.60;;;;;;5016681;28;20606;-66
2023/03/30 09:28:34;;;;;;;3.42;1.90;;;13.50;54.80;;;;;;4991211;28;20657;-67
2023/03/30 09:31:07;;;;;;;6.55;2.00;;;13.50;57.90;;;;;;5004451;28;20216;-67
2023/03/30 09:33:46;;;;;;;5.53;2.08;;;13.40;68.60;;;;;;5017776;28;20218;-66
2023/03/30 09:36:17;;;;;;;4.60;1.92;;;13.20;66.30;;;;;;4984639;28;20494;-67
2023/03/30 09:38:44;;;;;;;3.08;1.67;;;13.40;57.10;;;;;;5020974;28;20707;-67
2023/03/30 09:41:31;;;;;;;3.17;1.63;;;13.40;60.90;;;;;;5015096;28;20233;-67
2023/03/30 09:43:59;;;;;;;5.97;1.67;;;13.30;40.00;;;;;;4969885;28;20864;-67
2023/03/30 09:46:26;;;;;;;7.30;1.52;;;13.30;35.00;;;;;;5021282;28;20201;-66
2023/03/30 09:48:53;;;;;;;4.20;1.70;;;13.30;45.90;;;;;;5017466;28;20200;-67
2023/03/30 09:51:22;;;;;;;7.05;2.25;;;13.40;50.20;;;;;;4984364;28;20711;-67
2023/03/30 09:53:52;;;;;;;6.90;2.10;;;13.50;54.10;;;;;;5020582;28;20660;-67
2023/03/30 09:56:28;;;;;;;6.72;1.83;;;13.60;52.40;;;;;;5020302;28;20213;-67
2023/03/30 09:58:55;;;;;;;8.02;2.20;;;13.60;47.50;;;;;;4986689;28;20223;-67
2023/03/30 10:01:34;;;;;;;7.80;2.22;;;13.60;57.70;;;;;;5004605;28;20213;-67
2023/03/30 10:04:09;;;;;;;8.18;2.22;;;13.60;52.10;;;;;;5022030;28;20220;-67
2023/03/30 10:06:39;;;;;;;5.80;2.00;;;13.70;47.80;;;;;;4990720;28;20201;-66
2023/03/30 10:09:10;;;;;;;7.78;2.10;;;13.60;45.00;;;;;;5019807;28;20205;-67
2023/03/30 10:11:42;;;;;;;7.82;2.60;;;13.60;52.60;;;;;;5013872;28;20237;-67
2023/03/30 10:14:28;;;;;;;7.13;1.80;;;13.70;47.50;;;;;;4987300;28;20575;-67
2023/03/30 10:16:55;;;;;;;9.13;2.17;;;13.70;38.70;;;;;;5004345;28;20209;-66
2023/03/30 10:19:23;;;;;;;4.65;1.98;;;13.70;20.20;;;;;;5011069;28;20190;-66
2023/03/30 10:21:54;;;;;;;5.68;2.08;;;13.70;19.20;;;;;;4999663;28;20206;-66
2023/03/30 10:24:23;;;;;;;7.50;2.28;;;13.70;13.50;;;;;;5006655;28;20229;-66
2023/03/30 10:26:55;;;;;;;7.75;1.90;;;13.80;17.00;;;;;;5017580;28;20707;-66
2023/03/30 10:29:23;;;;;;;6.10;1.90;;;13.90;10.10;;;;;;4975654;28;20209;-66
2023/03/30 10:31:57;;;;;;;9.18;2.20;;;13.90;5.70;;;;;;5021110;28;20198;-66
2023/03/30 10:34:33;;;;;;;6.28;2.22;;;13.80;13.40;;;;;;5024981;28;20458;-66
2023/03/30 10:37:00;;;;;;;5.55;1.92;;;13.80;28.30;;;;;;5000564;28;20838;-66
2023/03/30 10:39:30;;;;;;;3.63;2.00;;;13.80;22.70;;;;;;5015988;28;20297;-66
2023/03/30 10:42:01;;;;;;;10.38;2.13;;;13.70;15.60;;;;;;5018666;28;20229;-66
2023/03/30 10:44:31;;;;;;;11.23;1.98;;;13.60;10.50;;;;;;4959568;28;20260;-66
2023/03/30 10:47:10;;;;;;;9.00;2.25;;;13.50;13.20;;;;;;4999715;28;20272;-66
2023/03/30 10:49:47;;;;;;;8.05;2.42;;;13.30;34.70;;;;;;4992077;28;20751;-66
2023/03/30 10:52:23;;;;;;;9.32;2.45;;;13.10;55.40;;;;;;4994047;28;20248;-66
2023/03/30 10:54:56;;;;;;;6.82;2.13;;;13.00;72.00;;;;;;5011934;28;20224;-66
2023/03/30 10:57:35;;;;;;;6.50;1.85;;;12.90;80.90;;;;;;5006871;28;20209;-66
2023/03/30 11:00:14;;;;;;;8.75;2.47;;;13.00;81.70;;;;;;4955793;28;20256;-66
2023/03/30 11:02:54;;;;;;;9.02;2.80;;;13.10;87.30;;;;;;5011929;28;20232;-66
2023/03/30 11:05:25;;;;;;;10.68;3.85;;;13.20;89.10;;;;;;4978910;28;20578;-66
2023/03/30 11:07:56;;;;;;;11.23;2.65;;;13.30;82.00;;;;;;4993943;28;20502;-66
2023/03/30 11:10:30;;;;;;;11.27;2.03;;;13.30;71.60;;;;;;4998493;28;20230;-66
2023/03/30 11:13:01;;;;;;;7.88;1.98;;;13.30;49.30;;;;;;4979296;28;20964;-66
2023/03/30 11:15:33;;;;;;;6.88;1.83;;;13.20;18.60;;;;;;4968977;28;20996;-66
2023/03/30 11:18:05;;;;;;;7.32;1.83;;;13.10;13.70;;;;;;5026725;28;20208;-66
2023/03/30 11:20:37;;;;;;;7.07;1.80;;;13.00;8.60;;;;;;5005950;28;22058;-65
2023/03/30 11:23:11;;;;;;;8.60;2.58;;;13.10;12.70;;;;;;5008447;28;20221;-65
2023/03/30 11:25:44;;;;;;;10.82;2.03;;;13.20;12.30;;;;;;5021764;28;20312;-65
2023/03/30 11:28:20;;;;;;;8.50;1.88;;;13.10;99.90;;;;;;5003647;28;20206;-65
2023/03/30 11:30:49;;;;;;;13.70;2.30;;;13.10;99.90;;;;;;4977478;28;20224;-65
2023/03/30 11:33:25;;;;;;;4.50;1.92;;;13.10;99.90;;;;;;5021682;28;20234;-65
2023/03/30 11:35:55;;;;;;;10.80;2.40;;;13.10;99.90;;;;;;5010290;28;20562;-65
2023/03/30 11:38:28;;;;;;;6.60;1.90;;;13.10;99.90;;;;;;4997617;28;20969;-65
2023/03/30 11:41:00;;;;;;;7.40;1.83;;;13.20;99.90;;;;;;5022878;28;20271;-65
2023/03/30 11:43:30;;;;;;;8.05;2.13;;;13.20;99.90;;;;;;5019494;28;20229;-65
2023/03/30 11:46:02;;;;;;;7.90;2.17;;;13.40;99.90;;;;;;4998759;28;20330;-65
2023/03/30 11:48:47;;;;;;;11.15;2.28;;;13.40;99.90;;;;;;4998884;28;20217;-66
2023/03/30 11:51:25;;;;;;;12.95;2.50;;;13.40;99.90;;;;;;4970897;28;20220;-66
2023/03/30 11:54:00;;;;;;;6.50;1.95;;;13.50;99.90;;;;;;5019610;28;20218;-66
2023/03/30 11:56:37;;;;;;;7.05;2.13;;;13.40;99.90;;;;;;4996261;28;20465;-66
2023/03/30 11:59:09;;;;;;;9.98;2.25;;;13.30;99.90;;;;;;5010044;28;20244;-65
2023/03/30 12:01:55;;;;;;;10.40;2.40;;;13.20;99.90;;;;;;4996466;28;20220;-66
2023/03/30 12:04:27;;;;;;;6.30;2.15;;;13.20;99.90;;;;;;4985154;28;20232;-65
2023/03/30 12:06:58;;;;;;;9.10;2.20;;;13.20;99.90;;;;;;5012345;28;20217;-65
2023/03/30 12:09:27;;;;;;;7.28;1.65;;;13.10;99.90;;;;;;4976072;28;20592;-65
2023/03/30 12:12:01;;;;;;;9.18;2.30;;;13.00;99.90;;;;;;4997521;28;20610;-65
2023/03/30 12:14:47;;;;;;;6.57;1.70;;;13.10;99.90;;;;;;5009116;28;21923;-65
2023/03/30 12:17:25;;;;;;;7.00;1.90;;;13.20;99.90;;;;;;4963910;28;20220;-66
2023/03/30 12:19:59;;;;;;;4.53;1.52;;;13.40;99.90;;;;;;5009274;28;20506;-65
2023/03/30 12:22:35;;;;;;;9.95;2.15;;;13.70;99.90;;;;;;5002037;28;22726;-65
2023/03/30 12:25:12;;;;;;;5.78;2.05;;;13.80;99.90;;;;;;4997209;28;20310;-65
2023/03/30 12:27:52;;;;;;;6.70;1.58;;;13.90;99.90;;;;;;5013214;28;20257;-65
2023/03/30 12:30:27;;;;;;;12.65;1.98;;;14.10;99.90;;;;;;5013613;28;20409;-65
2023/03/30 12:32:59;;;;;;;6.03;1.55;;;14.20;99.90;;;;;;4984952;28;20964;-65
2023/03/30 12:36:00;;;;;;;4.00;1.23;;;14.10;99.90;;;;;;5014494;28;21007;-65
2023/03/30 12:38:37;;;;;;;6.72;1.40;;;13.90;99.90;;;;;;4963738;28;20327;-65
2023/03/30 12:41:17;;;;;;;7.05;1.85;;;13.90;99.90;;;;;;4996725;28;20236;-65
2023/03/30 12:44:28;;;;;;;5.57;1.58;;;13.80;99.90;;;;;;5006112;28;20324;-65
2023/03/30 12:47:29;;;;;;;7.18;2.03;;;13.80;99.90;;;;;;4980551;28;20280;-65
2023/03/30 12:50:13;;;;;;;5.13;1.80;;;13.80;99.90;;;;;;4964761;28;20889;-65
2023/03/30 12:52:52;;;;;;;5.82;1.95;;;13.70;99.90;;;;;;4998492;28;20207;-65
2023/03/30 12:55:40;;;;;;;6.85;2.05;;;13.70;99.90;;;;;;4973277;28;20669;-65
2023/03/30 12:58:32;;;;;;;5.88;1.35;;;13.80;99.90;;;;;;4991501;28;20252;-66
2023/03/30 13:01:10;;;;;;;11.38;2.58;;;13.90;99.90;;;;;;4967564;28;20680;-65
2023/03/30 13:03:44;;;;;;;7.00;1.73;;;14.00;99.90;;;;;;4937570;28;20300;-66
2023/03/30 13:06:22;;;;;;;5.80;1.48;;;13.90;99.90;;;;;;4970732;28;20824;-65